Pagina principale
METAR-TAF:

METAR-TAF

Aeroporti :

Aeroporto Internazionale di Larnaca

Larnaca, Cipro

latitudine: 34-53N, longitudine: 033-38E, altezza: 2 m

Osservazione

Il bollettino è stato emesso 28 minuti fa, alle 14:00 UTC
Vento 9 kt da sud/sud-ovest
Temperature 28°C
Umidità 55%
Pressione 1012 hPa
Visibilità 10 km o più
nessuna nube inferiore a 1500 m e nessun cumulonembo

METAR: LCLK 271400Z 20009KT CAVOK 28/18 Q1012 NOSIG

Ora: 17:28 (14:28 UTC)

Previsione

Il bollettino è stato emesso 2 ore e 58 minuti fa, alle 11:30 UTC
Previsione valida dal 27 alle 12 UTC al 28 alle 12 UTC
Vento 13 kt da sud/sud-ovest
Visibilità 10 km o più
Poco nuvoloso ad un'altezza di 3000 ft
Evoluzione graduale
dal 27 alle 16 UTC al 27 alle 19 UTC
Vento 8 kt da nord/nord-ovest
Evoluzione graduale
dal 28 alle 08 UTC al 28 alle 11 UTC
Vento 14 kt da sud/sud-ovest

TAF: LCLK 271130Z 2712/2812 21013KT 9999 FEW030 BECMG 2716/2719 33008KT BECMG 2808/2811 21014KT

Osservazioni e previsioni meteorologiche di più di 4000 aeroporti (messaggi METAR e TAF).

Le stazioni disponibili sono rappresentate dai dischi gialli e rossi sulla carta.

Puntare il mouse per vedere il nome della stazione.

Clicca sopra per visualizzare le osservazioni e previsioni meteorologiche.

Per cambiare la mappa : fare clic sui pulsanti verdi con una croce nera per ingrandire, il pulsante verde con un trattino per diminuire, o sulla freccia verde per le mappe adiacenti.


METAR-TAF: